Time;durP1;ratioP1;P1;durP2;ratioP2;P2;SDS_P1;SDS_P2;PMS_P1;PMS_P2;Temp;Humidity;BMP_temperature;BMP_pressure;BME280_temperature;BME280_humidity;BME280_pressure;Samples;Min_cycle;Max_cycle;Signal;HPM_P1;HPM_P2
2024/03/09 00:00:26;;;;;;;24.50;14.70;;;;;;;2.17;100.00;96274.75;5048519;28;20480;-80
2024/03/09 00:02:55;;;;;;;22.48;13.40;;;;;;;2.17;100.00;96282.59;5054453;28;20401;-82
2024/03/09 00:05:26;;;;;;;28.00;15.60;;;;;;;2.16;100.00;96288.81;5057455;28;20479;-80
2024/03/09 00:07:55;;;;;;;28.52;15.50;;;;;;;2.14;100.00;96287.44;5055607;28;20399;-82
2024/03/09 00:10:22;;;;;;;26.92;14.85;;;;;;;2.14;100.00;96284.84;5051490;28;20404;-84
2024/03/09 00:12:49;;;;;;;34.58;17.73;;;;;;;2.16;100.00;96281.00;5051535;28;20407;-81
2024/03/09 00:15:16;;;;;;;27.98;16.40;;;;;;;2.18;100.00;96280.78;5051659;28;20407;-82
2024/03/09 00:17:42;;;;;;;31.20;17.45;;;;;;;2.21;100.00;96278.50;5052065;28;20438;-84
2024/03/09 00:20:12;;;;;;;30.85;16.77;;;;;;;2.26;100.00;96276.00;5051564;28;20498;-82
2024/03/09 00:22:40;;;;;;;25.60;14.32;;;;;;;2.32;100.00;96290.78;5052737;28;20782;-81
2024/03/09 00:25:08;;;;;;;25.58;14.82;;;;;;;2.36;100.00;96288.50;5053544;28;20411;-84
2024/03/09 00:27:34;;;;;;;22.33;13.00;;;;;;;2.39;100.00;96289.88;5054996;28;20418;-82
2024/03/09 00:30:02;;;;;;;23.45;13.35;;;;;;;2.42;100.00;96292.81;5057954;28;20394;-82
2024/03/09 00:32:29;;;;;;;31.80;17.48;;;;;;;2.50;100.00;96286.47;5057667;28;20390;-83
2024/03/09 00:34:55;;;;;;;28.73;16.40;;;;;;;2.50;100.00;96289.88;5050658;28;20426;-82
2024/03/09 00:37:21;;;;;;;28.20;15.73;;;;;;;2.50;100.00;96284.66;5047119;28;20426;-81
2024/03/09 00:39:49;;;;;;;31.05;16.42;;;;;;;2.53;100.00;96283.41;5049469;28;20486;-82
2024/03/09 00:42:15;;;;;;;28.05;15.48;;;;;;;2.50;100.00;96286.47;5051360;28;20407;-82
2024/03/09 00:44:42;;;;;;;23.92;14.00;;;;;;;2.46;100.00;96288.75;5050190;28;20884;-83
2024/03/09 00:47:08;;;;;;;23.42;13.75;;;;;;;2.43;100.00;96281.34;5049464;28;20409;-81
2024/03/09 00:49:34;;;;;;;21.48;12.45;;;;;;;2.38;100.00;96267.38;5049479;28;20402;-80
2024/03/09 00:52:01;;;;;;;19.20;12.32;;;;;;;2.36;100.00;96270.22;5048874;28;20474;-81
2024/03/09 00:54:27;;;;;;;29.05;16.27;;;;;;;2.31;100.00;96262.28;5047947;28;20399;-80
2024/03/09 00:56:55;;;;;;;32.42;17.70;;;;;;;2.27;100.00;96263.75;5047813;28;20449;-80
2024/03/09 00:59:22;;;;;;;26.13;15.45;;;;;;;2.23;100.00;96254.78;5047092;28;20407;-79
2024/03/09 01:01:48;;;;;;;29.27;16.42;;;;;;;2.17;100.00;96247.84;5049689;28;20410;-81
2024/03/09 01:04:15;;;;;;;23.65;13.60;;;;;;;2.13;100.00;96244.09;5049321;28;20403;-81
2024/03/09 01:06:41;;;;;;;26.08;14.38;;;;;;;2.09;100.00;96254.22;5049228;28;20510;-82
2024/03/09 01:09:07;;;;;;;27.70;15.02;;;;;;;2.03;100.00;96246.47;5049590;28;20410;-82
2024/03/09 01:11:33;;;;;;;25.40;13.88;;;;;;;2.02;100.00;96247.50;5047642;28;20411;-83
2024/03/09 01:14:01;;;;;;;30.27;16.85;;;;;;;1.99;100.00;96245.31;5048386;28;20411;-81
2024/03/09 01:16:29;;;;;;;30.45;16.42;;;;;;;1.94;100.00;96236.38;5049083;28;20477;-83
2024/03/09 01:18:56;;;;;;;29.83;17.20;;;;;;;1.95;100.00;96240.53;5049206;28;20395;-81
2024/03/09 01:21:24;;;;;;;32.30;17.63;;;;;;;1.91;100.00;96243.84;5042227;28;20403;-81
2024/03/09 01:23:54;;;;;;;27.10;15.43;;;;;;;1.87;100.00;96235.69;5040877;28;20548;-83
2024/03/09 01:26:26;;;;;;;31.88;16.52;;;;;;;1.89;100.00;96244.06;5044617;28;20440;-81
2024/03/09 01:28:54;;;;;;;29.67;15.80;;;;;;;1.90;100.00;96252.69;5045636;28;20441;-82
2024/03/09 01:31:27;;;;;;;31.10;17.10;;;;;;;1.89;100.00;96253.69;5050497;28;20403;-82
2024/03/09 01:33:59;;;;;;;24.48;14.73;;;;;;;1.90;100.00;96260.50;5051059;28;20453;-79
2024/03/09 01:36:30;;;;;;;31.20;17.27;;;;;;;1.90;100.00;96250.06;5047205;28;20470;-82
2024/03/09 01:38:57;;;;;;;34.22;18.92;;;;;;;1.94;100.00;96251.22;5046639;28;20433;-82
2024/03/09 01:41:25;;;;;;;32.47;17.65;;;;;;;1.92;100.00;96255.88;5047972;28;20411;-82
2024/03/09 01:43:52;;;;;;;28.48;15.90;;;;;;;1.89;100.00;96251.88;5048601;28;20403;-82
2024/03/09 01:46:25;;;;;;;26.25;14.95;;;;;;;1.88;100.00;96252.91;5047831;28;20421;-81
2024/03/09 01:48:53;;;;;;;22.92;13.18;;;;;;;1.90;100.00;96247.47;5048403;28;20410;-80
2024/03/09 01:51:19;;;;;;;29.15;15.57;;;;;;;1.94;100.00;96249.41;5047664;28;20435;-83
2024/03/09 01:53:53;;;;;;;27.63;16.17;;;;;;;1.96;100.00;96249.16;5047185;28;20436;-82
2024/03/09 01:56:30;;;;;;;29.45;15.90;;;;;;;1.94;100.00;96246.81;5049250;28;20410;-81
2024/03/09 01:58:56;;;;;;;25.77;14.68;;;;;;;1.95;100.00;96250.22;5048917;28;20519;-82
2024/03/09 02:01:31;;;;;;;30.73;16.40;;;;;;;1.99;100.00;96247.94;5049636;28;20411;-82
2024/03/09 02:04:01;;;;;;;28.35;16.58;;;;;;;1.99;100.00;96242.72;5050654;28;20433;-83
2024/03/09 02:06:28;;;;;;;33.92;18.02;;;;;;;2.04;100.00;96235.78;5050002;28;20907;-82
2024/03/09 02:08:58;;;;;;;34.88;18.08;;;;;;;2.07;100.00;96227.53;5051017;28;20454;-83
2024/03/09 02:11:29;;;;;;;28.77;15.70;;;;;;;2.07;100.00;96231.94;5051729;28;20484;-81
2024/03/09 02:14:00;;;;;;;26.40;14.75;;;;;;;2.09;100.00;96230.72;5049165;28;20441;-82
2024/03/09 02:16:30;;;;;;;32.08;17.23;;;;;;;2.08;100.00;96233.53;5048422;28;20460;-82
2024/03/09 02:18:58;;;;;;;26.02;14.68;;;;;;;2.08;100.00;96226.50;5048747;28;20453;-83
2024/03/09 02:21:25;;;;;;;27.45;15.93;;;;;;;2.08;100.00;96231.72;5047828;28;20404;-82
2024/03/09 02:23:57;;;;;;;26.43;14.90;;;;;;;2.08;100.00;96223.09;5045321;28;20442;-81
2024/03/09 02:26:28;;;;;;;23.08;13.88;;;;;;;2.09;100.00;96222.09;5045183;28;20410;-82
2024/03/09 02:28:56;;;;;;;28.77;15.85;;;;;;;2.10;100.00;96214.03;5047339;28;20440;-83
2024/03/09 02:31:22;;;;;;;24.83;14.47;;;;;;;2.14;100.00;96203.91;5050319;28;20427;-83
2024/03/09 02:33:51;;;;;;;34.05;19.02;;;;;;;2.18;100.00;96208.44;5050405;28;20395;-82
2024/03/09 02:36:23;;;;;;;30.15;16.80;;;;;;;2.19;100.00;96199.59;5049108;28;20498;-81
2024/03/09 02:38:50;;;;;;;26.95;14.38;;;;;;;2.21;100.00;96205.41;5045085;28;20511;-80
2024/03/09 02:41:16;;;;;;;24.87;14.43;;;;;;;2.24;100.00;96214.59;5047349;28;20403;-81
2024/03/09 02:43:43;;;;;;;20.50;12.48;;;;;;;2.24;100.00;96210.19;5047957;28;20417;-82
2024/03/09 02:46:10;;;;;;;22.00;13.10;;;;;;;2.27;100.00;96211.53;5048980;28;20446;-83
2024/03/09 02:48:36;;;;;;;20.65;12.63;;;;;;;2.27;100.00;96208.91;5049755;28;20453;-83
2024/03/09 02:51:03;;;;;;;21.15;12.73;;;;;;;2.30;100.00;96216.31;5051896;28;20402;-81
2024/03/09 02:53:33;;;;;;;22.30;12.75;;;;;;;2.33;100.00;96215.84;5054631;28;20966;-80
2024/03/09 02:56:00;;;;;;;21.23;12.63;;;;;;;2.35;100.00;96213.78;5050078;28;20434;-80
2024/03/09 02:58:26;;;;;;;25.73;13.90;;;;;;;2.38;100.00;96208.13;5048194;28;20402;-80
2024/03/09 03:00:55;;;;;;;24.93;14.60;;;;;;;2.41;100.00;96202.44;5048059;28;20442;-79
2024/03/09 03:06:06;;;;;;;33.85;18.70;;;;;;;2.47;100.00;96187.69;5047162;28;20433;-82
2024/03/09 03:08:33;;;;;;;33.03;18.33;;;;;;;2.49;100.00;96194.25;5046960;28;20414;-82
2024/03/09 03:11:00;;;;;;;25.00;14.70;;;;;;;2.50;100.00;96177.56;5046131;28;20436;-81
2024/03/09 03:13:27;;;;;;;32.35;17.92;;;;;;;2.50;100.00;96176.75;5046394;28;20453;-82
2024/03/09 03:15:54;;;;;;;30.83;16.63;;;;;;;2.50;100.00;96180.19;5045093;28;20422;-83
2024/03/09 03:18:20;;;;;;;32.58;17.17;;;;;;;2.54;100.00;96183.94;5048091;28;20401;-82
2024/03/09 03:20:47;;;;;;;35.88;17.80;;;;;;;2.57;100.00;96182.66;5049166;28;20402;-81
2024/03/09 03:23:13;;;;;;;35.42;18.13;;;;;;;2.59;100.00;96162.34;5049599;28;20422;-80
2024/03/09 03:25:39;;;;;;;28.23;16.23;;;;;;;2.61;100.00;96166.31;5049709;28;20426;-80
2024/03/09 03:28:05;;;;;;;31.13;17.83;;;;;;;2.59;100.00;96170.97;5051620;28;20413;-82
2024/03/09 03:30:33;;;;;;;26.20;14.75;;;;;;;2.61;100.00;96168.94;5051466;28;20419;-81
2024/03/09 03:33:00;;;;;;;25.48;14.70;;;;;;;2.62;100.00;96178.34;5052686;28;20402;-80
2024/03/09 03:35:27;;;;;;;30.83;16.15;;;;;;;2.65;100.00;96174.47;5051174;28;20407;-78
2024/03/09 03:37:59;;;;;;;29.98;15.80;;;;;;;2.65;100.00;96170.03;5051015;28;20437;-83
2024/03/09 03:40:26;;;;;;;31.88;17.85;;;;;;;2.59;100.00;96159.72;5045685;28;20403;-82
2024/03/09 03:42:54;;;;;;;36.63;17.48;;;;;;;2.61;100.00;96150.63;5045420;28;20407;-82
2024/03/09 03:45:21;;;;;;;30.05;16.75;;;;;;;2.62;100.00;96136.56;5044355;28;20419;-82
2024/03/09 03:47:49;;;;;;;32.15;17.02;;;;;;;2.68;100.00;96134.84;5046112;28;20407;-81
2024/03/09 03:50:24;;;;;;;33.78;17.90;;;;;;;2.66;100.00;96124.59;5045808;28;20396;-82
2024/03/09 03:52:54;;;;;;;25.92;14.82;;;;;;;2.66;100.00;96118.59;5034352;28;20401;-82
2024/03/09 03:55:20;;;;;;;24.75;13.77;;;;;;;2.67;100.00;96115.75;5044940;28;20506;-82
2024/03/09 03:57:47;;;;;;;22.30;12.48;;;;;;;2.69;100.00;96128.59;5043503;28;20429;-82
2024/03/09 04:00:16;;;;;;;38.50;20.45;;;;;;;2.65;100.00;96138.69;5044959;28;20433;-80
2024/03/09 04:02:42;;;;;;;39.58;19.95;;;;;;;2.65;100.00;96143.13;5043844;28;20395;-81
2024/03/09 04:05:09;;;;;;;38.40;20.38;;;;;;;2.71;100.00;96148.22;5043690;28;20776;-82
2024/03/09 04:07:40;;;;;;;39.47;20.30;;;;;;;2.80;100.00;96140.00;5041755;28;20399;-82
2024/03/09 04:10:13;;;;;;;33.22;17.63;;;;;;;2.76;100.00;96136.28;5042561;28;20778;-81
2024/03/09 04:12:42;;;;;;;34.67;18.63;;;;;;;2.72;100.00;96136.75;5045867;28;20435;-80
2024/03/09 04:15:09;;;;;;;29.17;16.25;;;;;;;2.70;100.00;96123.13;5044247;28;20419;-81
2024/03/09 04:17:42;;;;;;;43.72;22.17;;;;;;;2.66;100.00;96121.19;5045922;28;20424;-81
2024/03/09 04:20:15;;;;;;;33.05;18.92;;;;;;;2.64;100.00;96110.97;5043904;28;20422;-82
2024/03/09 04:22:50;;;;;;;29.13;16.03;;;;;;;2.64;100.00;96108.38;5044271;28;20498;-81
2024/03/09 04:25:19;;;;;;;25.42;14.45;;;;;;;2.67;100.00;96104.50;5043611;28;20856;-82
2024/03/09 04:27:49;;;;;;;25.42;13.25;;;;;;;2.70;100.00;96104.06;5042481;28;20462;-82
2024/03/09 04:30:23;;;;;;;33.28;17.13;;;;;;;2.77;100.00;96098.69;5044099;28;20395;-81
2024/03/09 04:32:50;;;;;;;31.77;17.42;;;;;;;2.78;100.00;96092.44;5043784;28;20439;-82
2024/03/09 04:35:20;;;;;;;25.42;14.63;;;;;;;2.79;100.00;96091.38;5045052;28;20395;-83
2024/03/09 04:37:52;;;;;;;32.35;18.15;;;;;;;2.80;100.00;96088.53;5049605;28;20437;-81
2024/03/09 04:40:20;;;;;;;41.22;20.83;;;;;;;2.73;100.00;96088.69;5043619;28;20403;-82
2024/03/09 04:42:49;;;;;;;36.60;18.57;;;;;;;2.73;100.00;96087.91;5044153;28;20411;-82
2024/03/09 04:45:19;;;;;;;32.00;17.38;;;;;;;2.75;100.00;96079.81;5043721;28;20494;-82
2024/03/09 04:47:52;;;;;;;26.50;15.60;;;;;;;2.78;100.00;96071.53;5045125;28;20415;-82
2024/03/09 04:50:21;;;;;;;31.98;16.60;;;;;;;2.82;100.00;96070.81;5046333;28;20411;-82
2024/03/09 04:52:50;;;;;;;25.63;14.43;;;;;;;2.85;100.00;96065.13;5050457;28;20399;-82
2024/03/09 04:55:18;;;;;;;25.85;14.80;;;;;;;2.88;100.00;96059.44;5047555;28;20503;-82
2024/03/09 04:57:48;;;;;;;22.95;12.93;;;;;;;2.89;100.00;96047.94;5042772;28;20771;-83
2024/03/09 05:00:17;;;;;;;22.98;13.85;;;;;;;2.91;100.00;96042.50;5044216;28;20403;-84
2024/03/09 05:02:47;;;;;;;32.78;17.83;;;;;;;2.94;100.00;96042.00;5037937;28;20403;-82
2024/03/09 05:05:20;;;;;;;38.67;20.50;;;;;;;2.88;100.00;96042.94;5044204;28;20460;-82
2024/03/09 05:07:49;;;;;;;30.33;16.52;;;;;;;2.84;100.00;96041.84;5046875;28;20411;-83
2024/03/09 05:10:19;;;;;;;31.90;17.17;;;;;;;2.84;100.00;96045.25;5047924;28;20421;-82
2024/03/09 05:13:07;;;;;;;39.58;21.38;;;;;;;2.94;100.00;96044.63;5044152;28;20405;-82
2024/03/09 05:15:47;;;;;;;36.55;19.50;;;;;;;2.92;100.00;96044.88;5045406;28;20406;-83
2024/03/09 05:18:21;;;;;;;36.88;19.23;;;;;;;2.88;100.00;96041.13;5045741;28;20407;-82
2024/03/09 05:20:52;;;;;;;39.72;20.88;;;;;;;2.86;100.00;96056.25;5046394;28;20776;-81
2024/03/09 05:23:41;;;;;;;42.15;21.33;;;;;;;2.83;100.00;96067.19;5027609;28;20411;-80
2024/03/09 05:26:10;;;;;;;44.42;22.45;;;;;;;2.75;100.00;96058.94;5040911;28;20423;-80
2024/03/09 05:28:37;;;;;;;43.25;21.85;;;;;;;2.77;100.00;96062.91;5039268;28;20399;-82
2024/03/09 05:31:04;;;;;;;42.85;22.80;;;;;;;2.65;100.00;96060.31;5040236;28;20399;-81
2024/03/09 05:33:34;;;;;;;41.35;21.33;;;;;;;2.61;100.00;96058.41;5039925;28;20399;-80
2024/03/09 05:36:00;;;;;;;43.08;21.88;;;;;;;2.62;100.00;96057.41;5040233;28;20411;-81
2024/03/09 05:38:26;;;;;;;37.65;20.90;;;;;;;2.57;100.00;96055.47;5038712;28;20530;-81
2024/03/09 05:40:54;;;;;;;41.95;22.95;;;;;;;2.56;100.00;96056.50;5040074;28;20395;-82
2024/03/09 05:43:21;;;;;;;39.47;21.13;;;;;;;2.49;100.00;96050.59;5038202;28;20434;-80
2024/03/09 05:45:47;;;;;;;39.00;21.23;;;;;;;2.45;100.00;96056.53;5038641;28;20415;-81
2024/03/09 05:48:13;;;;;;;40.55;21.98;;;;;;;2.38;100.00;96058.50;5039522;28;20480;-82
2024/03/09 05:50:40;;;;;;;36.25;20.50;;;;;;;2.41;100.00;96061.41;5040838;28;20899;-80
2024/03/09 05:53:06;;;;;;;38.05;21.40;;;;;;;2.49;100.00;96060.25;5039354;28;20433;-84
2024/03/09 05:55:32;;;;;;;36.28;20.67;;;;;;;2.43;100.00;96053.34;5039458;28;20417;-83
2024/03/09 05:58:00;;;;;;;37.10;20.95;;;;;;;2.37;100.00;96047.25;5040697;28;20418;-84
2024/03/09 06:00:28;;;;;;;41.40;20.92;;;;;;;2.32;100.00;96050.56;5040529;28;20403;-84
2024/03/09 06:02:54;;;;;;;39.03;21.67;;;;;;;2.26;100.00;96048.84;5043517;28;20442;-84
2024/03/09 06:05:28;;;;;;;35.72;20.40;;;;;;;2.27;100.00;96055.66;5046830;28;20395;-81
2024/03/09 06:07:57;;;;;;;37.10;20.77;;;;;;;2.21;100.00;96050.59;5045830;28;20406;-82
2024/03/09 06:10:24;;;;;;;36.97;20.73;;;;;;;2.29;100.00;96060.66;5045214;28;20497;-82
2024/03/09 06:12:51;;;;;;;36.63;20.23;;;;;;;2.28;100.00;96059.06;5046897;28;20486;-81
2024/03/09 06:15:21;;;;;;;34.17;19.13;;;;;;;2.22;100.00;96055.56;5046606;28;20406;-83
2024/03/09 06:17:48;;;;;;;36.08;19.25;;;;;;;2.21;100.00;96059.22;5047103;28;20458;-82
2024/03/09 06:20:15;;;;;;;44.47;20.50;;;;;;;2.13;100.00;96056.16;5047593;28;20445;-82
2024/03/09 06:22:47;;;;;;;40.17;20.67;;;;;;;2.12;100.00;96057.97;5047501;28;20401;-82
2024/03/09 06:25:24;;;;;;;39.97;21.42;;;;;;;2.11;100.00;96058.19;5046563;28;20458;-83
2024/03/09 06:27:50;;;;;;;36.50;20.08;;;;;;;2.07;100.00;96050.06;5043176;28;20402;-81
2024/03/09 06:30:19;;;;;;;36.00;19.33;;;;;;;2.05;100.00;96049.47;5043607;28;20457;-83
2024/03/09 06:32:46;;;;;;;34.45;19.30;;;;;;;2.04;100.00;96060.13;5044944;28;20444;-85
2024/03/09 06:35:13;;;;;;;34.42;18.63;;;;;;;2.02;100.00;96062.22;5046129;28;20418;-83
2024/03/09 06:37:40;;;;;;;32.33;19.55;;;;;;;2.02;100.00;96067.44;5041111;28;20786;-82
2024/03/09 06:40:08;;;;;;;39.35;20.88;;;;;;;2.00;100.00;96072.88;5046123;28;20402;-84
2024/03/09 06:42:34;;;;;;;39.70;21.40;;;;;;;2.12;100.00;96060.59;5048493;28;20430;-83
2024/03/09 06:45:01;;;;;;;40.15;21.85;;;;;;;2.16;100.00;96058.31;5045910;28;20405;-83
2024/03/09 06:47:30;;;;;;;39.67;21.67;;;;;;;2.18;100.00;96059.66;5044031;28;20490;-82
2024/03/09 06:49:57;;;;;;;37.55;20.83;;;;;;;2.32;100.00;96057.59;5045643;28;20438;-81
2024/03/09 06:52:23;;;;;;;37.63;20.93;;;;;;;2.33;100.00;96059.19;5043689;28;20462;-84
2024/03/09 06:54:49;;;;;;;36.95;21.10;;;;;;;2.44;100.00;96066.19;5042613;28;20476;-84
2024/03/09 06:57:15;;;;;;;37.10;20.52;;;;;;;2.52;100.00;96059.81;5041931;28;20410;-82
2024/03/09 06:59:42;;;;;;;35.13;19.73;;;;;;;2.55;100.00;96064.56;5040290;28;20391;-83
2024/03/09 07:02:08;;;;;;;39.05;19.80;;;;;;;2.59;100.00;96060.47;5052268;28;20406;-84
2024/03/09 07:04:36;;;;;;;38.88;20.25;;;;;;;2.69;100.00;96068.50;5052011;28;20419;-84
2024/03/09 07:07:02;;;;;;;37.03;20.25;;;;;;;2.85;100.00;96062.53;5043424;28;20450;-81
2024/03/09 07:09:29;;;;;;;34.42;18.95;;;;;;;3.00;100.00;96062.78;5041255;28;20457;-82
2024/03/09 07:11:55;;;;;;;39.17;20.45;;;;;;;3.06;100.00;96059.22;5045004;28;20910;-88
2024/03/09 07:14:21;;;;;;;35.70;19.13;;;;;;;3.42;100.00;96062.41;5052319;28;20398;-82
2024/03/09 07:16:47;;;;;;;34.78;18.95;;;;;;;3.40;100.00;96061.84;5049292;28;20429;-85
2024/03/09 07:19:14;;;;;;;38.85;20.58;;;;;;;3.40;100.00;96057.41;5049842;28;20410;-83
2024/03/09 07:21:41;;;;;;;30.20;17.17;;;;;;;3.52;100.00;96057.34;5050820;28;20407;-84
2024/03/09 07:24:08;;;;;;;30.20;17.10;;;;;;;3.61;100.00;96049.91;5049829;28;20399;-84
2024/03/09 07:26:38;;;;;;;27.02;15.10;;;;;;;3.70;100.00;96051.84;5046594;28;20744;-85
2024/03/09 07:29:05;;;;;;;24.67;14.35;;;;;;;3.78;100.00;96051.44;5048852;28;20399;-83
2024/03/09 07:31:31;;;;;;;37.03;19.42;;;;;;;3.83;100.00;96050.72;5050625;28;20395;-84
2024/03/09 07:33:57;;;;;;;36.63;18.27;;;;;;;3.92;100.00;96051.09;5050319;28;20399;-84
2024/03/09 07:36:23;;;;;;;34.88;18.48;;;;;;;3.97;100.00;96048.56;5048907;28;20441;-85
2024/03/09 07:38:51;;;;;;;29.88;15.82;;;;;;;4.12;100.00;96046.94;5049809;28;20628;-84
2024/03/09 07:41:19;;;;;;;27.92;14.48;;;;;;;4.23;100.00;96046.00;5047712;28;20410;-84
2024/03/09 07:43:45;;;;;;;21.80;12.60;;;;;;;4.31;100.00;96046.63;5052082;28;20410;-85
2024/03/09 07:46:11;;;;;;;25.70;13.27;;;;;;;4.39;100.00;96052.22;5054616;28;20502;-86
2024/03/09 07:48:39;;;;;;;23.98;12.73;;;;;;;4.46;100.00;96044.97;5053469;28;20391;-84
2024/03/09 07:51:08;;;;;;;20.48;11.63;;;;;;;4.53;100.00;96048.19;5050665;28;20403;-87
2024/03/09 07:53:34;;;;;;;21.60;11.37;;;;;;;4.62;100.00;96046.72;5052118;28;20431;-86
2024/03/09 07:56:02;;;;;;;20.42;12.00;;;;;;;4.68;100.00;96053.59;5049312;28;20418;-87
2024/03/09 07:58:29;;;;;;;19.50;11.13;;;;;;;4.77;100.00;96051.34;5050426;28;20398;-87
2024/03/09 08:00:55;;;;;;;22.50;12.60;;;;;;;4.85;100.00;96063.22;5054706;28;20395;-87
2024/03/09 08:03:22;;;;;;;23.50;12.45;;;;;;;4.92;100.00;96067.22;5054683;28;20395;-87
2024/03/09 08:05:48;;;;;;;20.92;11.25;;;;;;;5.01;100.00;96063.13;5059670;28;20399;-87
2024/03/09 08:08:17;;;;;;;21.13;11.52;;;;;;;5.12;100.00;96071.06;5046791;28;20406;-85
2024/03/09 08:10:52;;;;;;;20.63;11.20;;;;;;;5.21;100.00;96070.38;5039031;28;20410;-85
2024/03/09 08:13:21;;;;;;;19.65;11.02;;;;;;;5.32;100.00;96072.06;5046165;28;20438;-86
2024/03/09 08:15:48;;;;;;;18.67;11.05;;;;;;;5.47;100.00;96060.09;5049326;28;20429;-87
2024/03/09 08:18:14;;;;;;;20.98;11.93;;;;;;;5.55;100.00;96060.44;5048972;28;20419;-87
2024/03/09 08:20:41;;;;;;;20.73;11.68;;;;;;;5.68;100.00;96057.38;5042633;28;20923;-87
2024/03/09 08:23:07;;;;;;;26.00;14.48;;;;;;;5.84;100.00;96056.44;5045121;28;20391;-85
2024/03/09 08:25:33;;;;;;;20.00;12.05;;;;;;;5.95;100.00;96054.66;5045662;28;20398;-86
2024/03/09 08:28:00;;;;;;;30.70;16.20;;;;;;;6.02;100.00;96049.97;5044763;28;20768;-86
2024/03/09 08:30:27;;;;;;;25.05;14.70;;;;;;;6.20;100.00;96061.91;5044336;28;20892;-86
2024/03/09 08:32:54;;;;;;;21.35;12.30;;;;;;;6.41;100.00;96057.53;5044616;28;20403;-87
2024/03/09 08:35:21;;;;;;;20.88;11.77;;;;;;;6.65;100.00;96055.25;5043490;28;20468;-87
2024/03/09 08:37:50;;;;;;;20.85;11.68;;;;;;;6.93;100.00;96047.69;5045097;28;20896;-86
2024/03/09 08:40:18;;;;;;;21.63;11.88;;;;;;;7.23;100.00;96048.78;5044253;28;20421;-87
2024/03/09 08:42:47;;;;;;;20.75;11.43;;;;;;;7.55;100.00;96048.53;5043795;28;20485;-85
2024/03/09 08:45:14;;;;;;;17.45;10.13;;;;;;;7.90;100.00;96051.13;5044275;28;20748;-86
2024/03/09 08:47:42;;;;;;;15.82;9.70;;;;;;;8.30;100.00;96046.81;5044908;28;20486;-86
2024/03/09 08:50:12;;;;;;;22.75;12.52;;;;;;;8.63;100.00;96046.19;5043330;28;20395;-85
2024/03/09 08:52:39;;;;;;;21.38;12.20;;;;;;;9.03;100.00;96041.75;5047458;28;20430;-84
2024/03/09 08:55:10;;;;;;;21.65;12.07;;;;;;;9.44;100.00;96050.19;5039551;28;20411;-85
2024/03/09 08:57:36;;;;;;;24.90;13.23;;;;;;;9.70;100.00;96041.75;5038644;28;20598;-84
2024/03/09 09:00:06;;;;;;;21.40;11.38;;;;;;;10.14;100.00;96040.03;5037314;28;20407;-85
2024/03/09 09:02:32;;;;;;;19.20;10.95;;;;;;;10.42;100.00;96036.56;5036645;28;20494;-85
2024/03/09 09:05:00;;;;;;;19.73;10.00;;;;;;;10.70;100.00;96032.25;5036465;28;20403;-84
2024/03/09 09:07:26;;;;;;;16.90;10.25;;;;;;;11.01;100.00;96028.13;5038927;28;20426;-87
2024/03/09 09:09:52;;;;;;;17.73;9.70;;;;;;;11.29;100.00;96025.59;5041087;28;20430;-85
2024/03/09 09:12:19;;;;;;;19.30;11.27;;;;;;;11.56;100.00;96023.84;5041105;28;20891;-85
2024/03/09 09:14:46;;;;;;;17.75;10.75;;;;;;;11.85;100.00;96020.22;5041648;28;20399;-86
2024/03/09 09:17:12;;;;;;;17.95;10.45;;;;;;;12.05;100.00;96022.50;5043012;28;20399;-86
2024/03/09 09:19:39;;;;;;;19.10;10.65;;;;;;;12.23;100.00;96011.03;5045750;28;20482;-84
2024/03/09 09:22:07;;;;;;;21.15;11.85;;;;;;;12.34;100.00;96014.25;5056262;28;20414;-86
2024/03/09 09:24:34;;;;;;;17.70;10.98;;;;;;;12.45;100.00;96010.34;5056336;28;20391;-83
2024/03/09 09:27:00;;;;;;;20.42;11.18;;;;;;;12.53;100.00;96012.28;5041958;28;20422;-84
2024/03/09 09:29:28;;;;;;;17.13;10.45;;;;;;;12.77;100.00;96009.41;5039681;28;20456;-85
2024/03/09 09:31:55;;;;;;;15.77;10.15;;;;;;;12.93;100.00;96010.63;5039886;28;20399;-84
2024/03/09 09:34:21;;;;;;;15.50;9.88;;;;;;;13.13;100.00;96006.78;5039065;28;20399;-86
2024/03/09 09:36:48;;;;;;;17.17;9.97;;;;;;;13.38;100.00;95994.78;5038274;28;20399;-86
2024/03/09 09:39:20;;;;;;;15.30;9.23;;;;;;;13.56;100.00;95991.94;5041927;28;20490;-85
2024/03/09 09:41:48;;;;;;;14.30;9.20;;;;;;;13.81;100.00;95979.88;5042496;28;20435;-84
2024/03/09 09:44:17;;;;;;;14.93;9.50;;;;;;;14.07;100.00;95976.53;5042303;28;20872;-87
2024/03/09 09:46:43;;;;;;;15.75;9.43;;;;;;;14.40;100.00;95966.34;5043794;28;20462;-84
2024/03/09 09:49:10;;;;;;;15.55;9.75;;;;;;;14.94;100.00;95970.34;5044107;28;20403;-83
2024/03/09 09:51:39;;;;;;;15.18;9.35;;;;;;;15.60;100.00;95962.94;5047148;28;20418;-84
2024/03/09 09:54:07;;;;;;;15.05;9.15;;;;;;;16.12;100.00;95959.00;5044303;28;20419;-84
2024/03/09 09:56:35;;;;;;;12.90;8.20;;;;;;;16.79;100.00;95960.84;5046682;28;20403;-85
2024/03/09 09:59:01;;;;;;;12.35;7.30;;;;;;;17.47;100.00;95957.94;5044772;28;20407;-84
2024/03/09 10:01:27;;;;;;;12.17;8.03;;;;;;;18.18;100.00;95956.56;5044245;28;20429;-84
2024/03/09 10:03:53;;;;;;;14.15;7.97;;;;;;;18.96;100.00;95947.44;5043269;28;20411;-84
2024/03/09 10:06:21;;;;;;;13.63;8.43;;;;;;;19.46;100.00;95949.63;5039187;28;20744;-84
2024/03/09 10:08:48;;;;;;;15.65;9.13;;;;;;;20.09;100.00;95953.19;5038453;28;20407;-84
2024/03/09 10:11:15;;;;;;;11.65;7.68;;;;;;;20.52;100.00;95956.16;5039655;28;20458;-84
2024/03/09 10:13:43;;;;;;;13.32;8.07;;;;;;;20.73;100.00;95962.00;5040708;28;20573;-84
2024/03/09 10:16:12;;;;;;;11.10;7.65;;;;;;;20.84;100.00;95957.63;5038879;28;20399;-84
2024/03/09 10:18:41;;;;;;;15.82;9.70;;;;;;;20.76;100.00;95956.69;5039033;28;20411;-85
2024/03/09 10:21:09;;;;;;;11.73;7.97;;;;;;;20.94;100.00;95950.94;5043132;28;20403;-83
2024/03/09 10:23:35;;;;;;;11.32;7.55;;;;;;;20.90;100.00;95942.00;5036330;28;20391;-83
2024/03/09 10:26:06;;;;;;;11.48;7.45;;;;;;;21.10;100.00;95938.97;5037436;28;20418;-83
2024/03/09 10:28:36;;;;;;;10.73;6.60;;;;;;;21.29;100.00;95922.06;5038456;28;20399;-84
2024/03/09 10:31:05;;;;;;;10.33;6.07;;;;;;;21.70;100.00;95925.13;5045612;28;20402;-85
2024/03/09 10:33:34;;;;;;;9.20;6.20;;;;;;;21.94;100.00;95928.28;5038995;28;20457;-86
2024/03/09 10:36:01;;;;;;;7.72;5.45;;;;;;;22.38;100.00;95919.75;5039915;28;20434;-86
2024/03/09 10:38:30;;;;;;;7.70;5.10;;;;;;;22.62;100.00;95911.25;5041501;28;20407;-84
2024/03/09 10:40:59;;;;;;;8.63;5.97;;;;;;;22.91;100.00;95908.97;5039776;28;20430;-84
2024/03/09 10:43:26;;;;;;;7.03;4.88;;;;;;;23.47;90.87;95890.72;5039636;28;20391;-83
2024/03/09 10:45:55;;;;;;;7.40;4.87;;;;;;;23.34;91.24;95881.31;5042481;28;20399;-82
2024/03/09 10:48:24;;;;;;;10.85;5.28;;;;;;;23.12;85.20;95879.53;5041955;28;20410;-85
2024/03/09 10:51:14;;;;;;;10.27;6.80;;;;;;;22.71;88.68;95871.28;5041539;28;20923;-85
2024/03/09 10:53:54;;;;;;;11.65;7.03;;;;;;;22.91;90.57;95869.25;5039221;28;20426;-84
2024/03/09 10:56:22;;;;;;;10.15;6.60;;;;;;;22.78;93.96;95871.41;5045572;28;20433;-85
2024/03/09 10:58:53;;;;;;;12.30;6.77;;;;;;;22.88;94.01;95872.69;5043253;28;20407;-86
2024/03/09 11:01:21;;;;;;;10.60;6.63;;;;;;;22.75;97.87;95876.75;5045655;28;20410;-87
2024/03/09 11:03:50;;;;;;;9.60;6.30;;;;;;;22.73;95.42;95873.63;5047936;28;20418;-86
2024/03/09 11:06:19;;;;;;;10.77;7.00;;;;;;;22.67;92.39;95881.25;5048843;28;20403;-86
2024/03/09 11:08:48;;;;;;;11.33;6.83;;;;;;;22.81;94.42;95877.22;5053841;28;20409;-85
2024/03/09 11:11:18;;;;;;;12.05;7.32;;;;;;;22.93;95.09;95868.91;5055137;28;20402;-85
2024/03/09 11:13:47;;;;;;;9.82;6.30;;;;;;;22.95;96.18;95869.28;5049012;28;20416;-86
2024/03/09 11:16:14;;;;;;;10.77;6.88;;;;;;;22.97;96.99;95865.09;5053216;28;20390;-87
2024/03/09 11:18:43;;;;;;;11.38;7.30;;;;;;;23.07;91.69;95858.28;5053262;28;20403;-87
2024/03/09 11:23:38;;;;;;;12.00;7.10;;;;;;;22.84;94.40;95855.69;4984793;28;20436;-85
2024/03/09 11:26:06;;;;;;;9.83;6.57;;;;;;;22.65;96.35;95859.25;4983288;28;20416;-83